createdAt,value
2022-09-30T00:00:43.489Z,95.82
2022-09-30T00:01:47.382Z,95.41
2022-09-30T00:02:49.338Z,95.54
2022-09-30T00:03:54.957Z,95.84
2022-09-30T00:04:56.918Z,96.21
2022-09-30T00:06:04.356Z,96.04
2022-09-30T00:07:04.107Z,96.15
2022-09-30T00:08:06.022Z,95.90
2022-09-30T00:09:08.509Z,95.85
2022-09-30T00:10:10.975Z,95.53
2022-09-30T00:11:16.531Z,95.22
2022-09-30T00:12:19.367Z,95.70
2022-09-30T00:13:21.094Z,96.31
2022-09-30T00:14:23.436Z,95.96
2022-09-30T00:15:25.237Z,95.66
2022-09-30T00:16:30.461Z,96.12
2022-09-30T00:17:32.758Z,96.09
2022-09-30T00:18:34.751Z,96.10
2022-09-30T00:19:37.725Z,96.22
2022-09-30T00:20:40.890Z,96.19
2022-09-30T00:21:44.298Z,95.86
2022-09-30T00:22:46.039Z,95.72
2022-09-30T00:23:47.789Z,95.42
2022-09-30T00:24:49.834Z,95.58
2022-09-30T00:26:01.153Z,95.44
2022-09-30T00:27:03.270Z,95.52
2022-09-30T00:28:05.167Z,95.65
2022-09-30T00:29:07.460Z,95.59
2022-09-30T00:30:10.164Z,95.06
2022-09-30T00:31:15.194Z,95.18
2022-09-30T00:32:17.370Z,96.04
2022-09-30T00:33:19.204Z,95.77
2022-09-30T00:34:20.951Z,95.82
2022-09-30T00:35:22.801Z,95.82
2022-09-30T00:36:24.711Z,95.37
2022-09-30T00:37:26.971Z,95.27
2022-09-30T00:38:29.357Z,95.76
2022-09-30T00:39:31.371Z,95.87
2022-09-30T00:40:33.929Z,95.87
2022-09-30T00:41:36.029Z,95.54
2022-09-30T00:42:39.989Z,95.14
2022-09-30T00:43:44.695Z,94.84
2022-09-30T00:44:55.519Z,95.23
2022-09-30T00:45:59.882Z,95.25
2022-09-30T00:47:02.090Z,94.20
2022-09-30T00:48:13.186Z,94.45
2022-09-30T00:49:23.045Z,94.36
2022-09-30T00:50:38.139Z,94.08
2022-09-30T00:51:47.350Z,94.22
2022-09-30T00:54:12.350Z,94.14
2022-09-30T00:55:17.862Z,94.56
2022-09-30T00:56:23.667Z,95.41
2022-09-30T00:57:29.282Z,95.24
2022-09-30T00:58:40.619Z,95.21
2022-09-30T00:59:48.151Z,95.18
2022-09-30T01:00:50.909Z,95.07
2022-09-30T01:01:53.868Z,94.99
2022-09-30T01:02:56.266Z,95.47
2022-09-30T01:04:01.783Z,95.36
2022-09-30T01:05:04.354Z,95.68
2022-09-30T01:06:09.273Z,95.59
2022-09-30T01:07:12.399Z,95.15
2022-09-30T01:08:15.838Z,95.21
2022-09-30T01:09:18.719Z,95.05
2022-09-30T01:10:20.819Z,95.53
2022-09-30T01:11:22.563Z,95.40
2022-09-30T01:12:26.020Z,95.17
2022-09-30T01:13:30.342Z,94.98
2022-09-30T01:14:32.601Z,95.07
2022-09-30T01:16:06.246Z,94.80
2022-09-30T01:17:25.178Z,94.09
2022-09-30T01:18:33.593Z,94.40
2022-09-30T01:19:53.698Z,94.65
2022-09-30T01:21:33.375Z,94.53
2022-09-30T01:22:50.661Z,94.23
2022-09-30T01:24:08.008Z,94.80
2022-09-30T01:25:16.530Z,94.49
2022-09-30T01:26:43.436Z,94.67
2022-09-30T01:28:08.471Z,94.85
2022-09-30T01:29:33.788Z,94.95
2022-09-30T01:31:00.819Z,94.93
2022-09-30T01:32:15.643Z,94.88
2022-09-30T01:33:39.439Z,95.17
2022-09-30T01:34:47.861Z,95.06
2022-09-30T01:36:02.525Z,95.49
2022-09-30T01:37:08.113Z,95.46
2022-09-30T01:38:14.088Z,95.64
2022-09-30T01:39:36.108Z,96.05
2022-09-30T01:41:03.339Z,96.63
2022-09-30T01:42:43.984Z,96.55
2022-09-30T01:44:12.553Z,97.22
2022-09-30T01:45:26.870Z,97.07
2022-09-30T01:46:45.522Z,97.69
2022-09-30T01:48:00.004Z,98.53
2022-09-30T01:49:08.519Z,98.30
2022-09-30T01:50:23.344Z,98.68
2022-09-30T01:51:41.043Z,98.77
2022-09-30T01:52:52.608Z,98.58
2022-09-30T01:55:26.740Z,98.69
2022-09-30T01:58:00.812Z,99.53
2022-09-30T01:59:15.483Z,99.94
2022-09-30T02:00:18.887Z,100.00
2022-09-30T02:01:30.158Z,100.00
2022-09-30T02:02:38.482Z,100.00
2022-09-30T02:03:50.212Z,100.00
2022-09-30T02:04:56.769Z,100.00
2022-09-30T02:06:12.103Z,100.00
2022-09-30T02:07:17.663Z,100.00
2022-09-30T02:08:23.169Z,100.00
2022-09-30T02:09:34.821Z,100.00
2022-09-30T02:10:41.098Z,100.00
2022-09-30T02:11:44.100Z,100.00
2022-09-30T02:12:52.361Z,100.00
2022-09-30T02:14:13.150Z,100.00
2022-09-30T02:15:18.787Z,100.00
2022-09-30T02:16:27.043Z,100.00
2022-09-30T02:17:35.826Z,100.00
2022-09-30T02:18:49.843Z,100.00
2022-09-30T02:20:01.177Z,100.00
2022-09-30T02:21:06.703Z,100.00
2022-09-30T02:22:18.215Z,100.00
2022-09-30T02:23:29.207Z,100.00
2022-09-30T02:24:34.837Z,100.00
2022-09-30T02:25:40.319Z,100.00
2022-09-30T02:26:46.014Z,100.00
2022-09-30T02:27:52.092Z,100.00
2022-09-30T02:28:57.592Z,100.00
2022-09-30T02:30:01.305Z,100.00
2022-09-30T02:31:06.701Z,99.78
2022-09-30T02:32:15.286Z,99.75
2022-09-30T02:33:20.889Z,99.98
2022-09-30T02:34:36.007Z,99.44
2022-09-30T02:35:47.716Z,99.05
2022-09-30T02:36:55.840Z,99.12
2022-09-30T02:39:17.683Z,98.09
2022-09-30T02:40:23.599Z,97.99
2022-09-30T02:41:28.083Z,98.10
2022-09-30T02:42:30.959Z,98.57
2022-09-30T02:43:34.108Z,99.07
2022-09-30T02:44:37.191Z,99.27
2022-09-30T02:46:04.197Z,100.00
2022-09-30T02:48:41.978Z,99.63
2022-09-30T02:49:53.301Z,99.76
2022-09-30T02:51:08.232Z,99.90
2022-09-30T02:52:13.843Z,99.79
2022-09-30T02:53:28.107Z,99.56
2022-09-30T02:54:33.613Z,99.61
2022-09-30T02:56:11.659Z,100.00
2022-09-30T02:57:39.758Z,100.00
2022-09-30T02:58:42.900Z,100.00
2022-09-30T02:59:50.934Z,100.00
2022-09-30T03:00:53.884Z,100.00
2022-09-30T03:01:56.290Z,100.00
2022-09-30T03:03:14.238Z,100.00
2022-09-30T03:04:19.745Z,99.88
2022-09-30T03:05:22.965Z,99.56
2022-09-30T03:06:25.413Z,99.99
2022-09-30T03:07:27.405Z,99.04
2022-09-30T03:08:29.412Z,99.34
2022-09-30T03:09:32.998Z,99.78
2022-09-30T03:10:35.977Z,100.00
2022-09-30T03:11:38.026Z,100.00
2022-09-30T03:12:55.454Z,100.00
2022-09-30T03:14:27.648Z,100.00
2022-09-30T03:15:38.991Z,99.75
2022-09-30T03:17:04.499Z,99.97
2022-09-30T03:18:39.998Z,99.63
2022-09-30T03:20:14.119Z,99.80
2022-09-30T03:21:53.251Z,100.00
2022-09-30T03:23:04.557Z,99.91
2022-09-30T03:24:26.785Z,100.00
2022-09-30T03:25:32.303Z,100.00
2022-09-30T03:27:10.200Z,100.00
2022-09-30T03:28:32.523Z,100.00
2022-09-30T03:29:47.269Z,99.59
2022-09-30T03:30:58.970Z,99.07
2022-09-30T03:32:17.106Z,99.35
2022-09-30T03:33:25.358Z,99.27
2022-09-30T03:34:40.370Z,99.02
2022-09-30T03:36:00.790Z,99.31
2022-09-30T03:37:18.195Z,98.36
2022-09-30T03:38:40.478Z,98.11
2022-09-30T03:39:59.466Z,97.65
2022-09-30T03:41:19.618Z,97.25
2022-09-30T03:42:41.660Z,98.22
2022-09-30T03:43:59.486Z,97.04
2022-09-30T03:45:20.500Z,96.89
2022-09-30T03:46:26.150Z,96.80
2022-09-30T03:47:31.940Z,96.42
2022-09-30T03:48:36.434Z,96.54
2022-09-30T03:49:55.287Z,96.40
2022-09-30T03:50:59.728Z,97.15
2022-09-30T03:52:07.076Z,96.76
2022-09-30T03:53:11.986Z,96.23
2022-09-30T03:54:14.556Z,95.86
2022-09-30T03:55:17.905Z,95.71
2022-09-30T03:57:35.897Z,96.92
2022-09-30T03:58:41.320Z,95.48
2022-09-30T03:59:43.478Z,96.03
2022-09-30T04:00:49.206Z,96.23
2022-09-30T04:01:51.741Z,96.13
2022-09-30T04:02:57.660Z,95.48
2022-09-30T04:03:57.509Z,95.73
2022-09-30T04:04:59.217Z,95.48
2022-09-30T04:06:01.102Z,95.45
2022-09-30T04:07:02.842Z,95.12
2022-09-30T04:08:04.878Z,93.77
2022-09-30T04:09:07.795Z,94.07
2022-09-30T04:10:10.939Z,94.27
2022-09-30T04:11:13.047Z,93.79
2022-09-30T04:12:15.393Z,93.62
2022-09-30T04:13:17.221Z,94.20
2022-09-30T04:14:19.094Z,94.74
2022-09-30T04:15:21.282Z,95.00
2022-09-30T04:16:23.472Z,94.95
2022-09-30T04:17:25.597Z,93.81
2022-09-30T04:18:27.482Z,93.70
2022-09-30T04:19:29.476Z,93.97
2022-09-30T04:20:32.900Z,94.37
2022-09-30T04:21:34.937Z,94.44
2022-09-30T04:22:37.278Z,94.25
2022-09-30T04:23:41.427Z,93.68
2022-09-30T04:24:43.418Z,92.63
2022-09-30T04:25:53.771Z,92.77
2022-09-30T04:26:55.601Z,93.47
2022-09-30T04:27:57.469Z,93.43
2022-09-30T04:28:59.350Z,92.73
2022-09-30T04:30:01.233Z,93.30
2022-09-30T04:31:05.841Z,93.20
2022-09-30T04:32:08.717Z,92.50
2022-09-30T04:33:10.784Z,92.58
2022-09-30T04:34:13.219Z,93.75
2022-09-30T04:35:15.583Z,93.91
2022-09-30T04:36:18.601Z,94.03
2022-09-30T04:37:20.526Z,94.78
2022-09-30T04:38:24.535Z,95.01
2022-09-30T04:39:26.433Z,95.80
2022-09-30T04:40:28.228Z,95.55
2022-09-30T04:41:30.081Z,95.72
2022-09-30T04:42:31.988Z,95.78
2022-09-30T04:43:34.252Z,95.62
2022-09-30T04:44:36.324Z,95.39
2022-09-30T04:45:41.758Z,95.62
2022-09-30T04:46:43.795Z,95.59
2022-09-30T04:47:45.430Z,95.03
2022-09-30T04:48:48.051Z,94.87
2022-09-30T04:49:50.138Z,94.81
2022-09-30T04:50:51.942Z,95.27
2022-09-30T04:51:53.987Z,95.83
2022-09-30T04:52:56.467Z,95.83
2022-09-30T04:53:58.456Z,95.90
2022-09-30T04:55:00.360Z,95.81
2022-09-30T04:56:03.047Z,96.18
2022-09-30T04:57:04.948Z,95.82
2022-09-30T04:58:06.817Z,94.84
2022-09-30T04:59:09.056Z,94.98
2022-09-30T05:00:12.124Z,94.82
2022-09-30T05:01:16.432Z,94.48
2022-09-30T05:02:19.499Z,94.39
2022-09-30T05:03:21.490Z,94.87
2022-09-30T05:04:23.747Z,93.85
2022-09-30T05:05:25.756Z,94.51
2022-09-30T05:06:28.283Z,94.30
2022-09-30T05:07:31.097Z,94.71
2022-09-30T05:08:34.356Z,94.82
2022-09-30T05:09:36.761Z,94.87
2022-09-30T05:10:38.633Z,95.02
2022-09-30T05:11:41.019Z,94.24
2022-09-30T05:12:43.497Z,93.07
2022-09-30T05:13:46.497Z,94.88
2022-09-30T05:14:48.426Z,94.88
2022-09-30T05:15:50.412Z,94.63
2022-09-30T05:16:52.391Z,94.62
2022-09-30T05:17:55.192Z,94.47
2022-09-30T05:18:56.914Z,94.41
2022-09-30T05:20:00.009Z,94.32
2022-09-30T05:21:02.985Z,94.92
2022-09-30T05:22:04.933Z,94.92
2022-09-30T05:23:06.606Z,95.97
2022-09-30T05:24:08.453Z,95.68
2022-09-30T05:25:11.346Z,95.77
2022-09-30T05:26:14.416Z,95.79
2022-09-30T05:27:17.688Z,94.96
2022-09-30T05:28:20.147Z,94.93
2022-09-30T05:29:22.275Z,94.38
2022-09-30T05:30:24.352Z,94.42
2022-09-30T05:31:26.472Z,94.30
2022-09-30T05:32:28.686Z,94.92
2022-09-30T05:33:31.169Z,95.18
2022-09-30T05:34:33.383Z,95.51
2022-09-30T05:35:35.815Z,95.68
2022-09-30T05:36:37.953Z,95.55
2022-09-30T05:37:40.897Z,95.44
2022-09-30T05:38:42.957Z,95.71
2022-09-30T05:39:45.011Z,95.64
2022-09-30T05:40:50.032Z,95.50
2022-09-30T05:41:52.108Z,95.52
2022-09-30T05:42:56.390Z,95.90
2022-09-30T05:43:58.252Z,95.37
2022-09-30T05:45:00.871Z,95.37
2022-09-30T05:46:02.786Z,95.47
2022-09-30T05:47:05.457Z,95.47
2022-09-30T05:48:08.203Z,95.46
2022-09-30T05:49:10.452Z,95.30
2022-09-30T05:50:12.883Z,95.33
2022-09-30T05:51:14.928Z,95.09
2022-09-30T05:52:16.909Z,95.26
2022-09-30T05:53:19.117Z,94.64
2022-09-30T05:54:21.544Z,95.64
2022-09-30T05:55:24.946Z,95.24
2022-09-30T05:56:27.137Z,97.31
2022-09-30T05:57:29.006Z,98.93
2022-09-30T05:58:30.979Z,98.75
2022-09-30T05:59:33.081Z,98.57
2022-09-30T06:00:34.996Z,98.40
2022-09-30T06:01:37.942Z,98.17
2022-09-30T06:02:39.923Z,97.40
2022-09-30T06:03:43.676Z,97.75
2022-09-30T06:04:45.662Z,98.39
2022-09-30T06:05:49.087Z,98.20
2022-09-30T06:06:51.121Z,98.24
2022-09-30T06:07:53.047Z,98.35
2022-09-30T06:08:55.301Z,97.85
2022-09-30T06:09:57.023Z,98.17
2022-09-30T06:10:58.883Z,98.59
2022-09-30T06:12:01.096Z,98.59
2022-09-30T06:13:04.773Z,98.70
2022-09-30T06:14:06.670Z,99.05
2022-09-30T06:15:09.298Z,99.98
2022-09-30T06:16:12.569Z,99.86
2022-09-30T06:17:14.558Z,99.25
2022-09-30T06:18:17.871Z,99.43
2022-09-30T06:19:20.388Z,100.00
2022-09-30T06:20:23.133Z,100.00
2022-09-30T06:21:25.879Z,100.00
2022-09-30T06:22:27.586Z,100.00
2022-09-30T06:23:31.775Z,100.00
2022-09-30T06:24:33.526Z,100.00
2022-09-30T06:25:35.254Z,100.00
2022-09-30T06:26:37.369Z,100.00
2022-09-30T06:27:39.280Z,100.00
2022-09-30T06:28:41.733Z,100.00
2022-09-30T06:29:43.543Z,100.00
2022-09-30T06:30:46.575Z,99.96
2022-09-30T06:31:48.834Z,99.46
2022-09-30T06:32:51.403Z,99.19
2022-09-30T06:33:53.927Z,99.33
2022-09-30T06:34:55.837Z,99.38
2022-09-30T06:35:58.969Z,98.01
2022-09-30T06:37:00.806Z,98.01
2022-09-30T06:38:02.677Z,99.36
2022-09-30T06:39:04.739Z,99.52
2022-09-30T06:40:07.856Z,99.75
2022-09-30T06:41:09.815Z,100.00
2022-09-30T06:42:12.458Z,99.93
2022-09-30T06:43:14.880Z,100.00
2022-09-30T06:44:16.684Z,99.93
2022-09-30T06:45:30.099Z,99.42
2022-09-30T06:46:29.815Z,97.90
2022-09-30T06:47:27.709Z,97.99
2022-09-30T06:48:37.511Z,98.65
2022-09-30T06:49:43.955Z,98.82
2022-09-30T06:50:37.517Z,98.71
2022-09-30T06:51:39.514Z,97.52
2022-09-30T06:52:41.267Z,95.66
2022-09-30T06:53:43.108Z,95.45
2022-09-30T06:54:46.090Z,95.46
2022-09-30T06:55:48.360Z,94.48
2022-09-30T06:56:50.468Z,94.50
2022-09-30T06:57:53.371Z,96.22
2022-09-30T06:58:55.299Z,96.44
2022-09-30T06:59:58.019Z,96.92
2022-09-30T07:01:02.363Z,97.85
2022-09-30T07:02:04.543Z,98.16
2022-09-30T07:03:07.011Z,98.29
2022-09-30T07:04:10.691Z,99.98
2022-09-30T07:05:12.782Z,100.00
2022-09-30T07:06:15.036Z,100.00
2022-09-30T07:07:16.895Z,99.70
2022-09-30T07:08:19.189Z,99.77
2022-09-30T07:09:21.057Z,99.45
2022-09-30T07:10:23.210Z,98.27
2022-09-30T07:11:25.173Z,97.46
2022-09-30T07:12:27.410Z,97.46
2022-09-30T07:13:30.165Z,96.79
2022-09-30T07:14:32.311Z,96.35
2022-09-30T07:15:34.224Z,96.19
2022-09-30T07:16:36.566Z,96.14
2022-09-30T07:17:38.344Z,95.87
2022-09-30T07:18:40.782Z,95.37
2022-09-30T07:19:42.498Z,94.58
2022-09-30T07:20:52.862Z,94.43
2022-09-30T07:21:54.929Z,94.45
2022-09-30T07:22:57.265Z,94.38
2022-09-30T07:23:59.347Z,93.50
2022-09-30T07:25:03.327Z,93.22
2022-09-30T07:26:05.561Z,93.03
2022-09-30T07:27:07.816Z,92.03
2022-09-30T07:28:09.710Z,91.96
2022-09-30T07:29:13.063Z,91.67
2022-09-30T07:30:25.793Z,91.15
2022-09-30T07:31:39.290Z,90.47
2022-09-30T07:32:27.721Z,90.14
2022-09-30T07:33:29.681Z,93.24
2022-09-30T07:34:31.943Z,92.68
2022-09-30T07:35:34.183Z,91.94
2022-09-30T07:36:38.626Z,91.03
2022-09-30T07:37:41.067Z,90.17
2022-09-30T07:38:42.865Z,89.46
2022-09-30T07:39:46.641Z,90.37
2022-09-30T07:41:00.599Z,90.37
2022-09-30T07:42:03.101Z,89.41
2022-09-30T07:43:08.612Z,88.99
2022-09-30T07:44:13.051Z,89.03
2022-09-30T07:45:15.537Z,89.00
2022-09-30T07:46:25.049Z,88.41
2022-09-30T07:47:27.034Z,88.40
2022-09-30T07:48:28.976Z,87.79
2022-09-30T07:49:30.719Z,87.71
2022-09-30T07:50:32.811Z,88.37
2022-09-30T07:51:38.273Z,88.25
2022-09-30T07:52:40.888Z,87.71
2022-09-30T07:53:46.221Z,87.43
2022-09-30T07:54:50.517Z,87.53
2022-09-30T07:55:51.894Z,87.43
2022-09-30T07:57:11.157Z,87.25
2022-09-30T07:57:59.432Z,86.83
2022-09-30T07:59:01.829Z,86.12
2022-09-30T08:00:22.971Z,86.97
2022-09-30T08:01:10.888Z,86.97
2022-09-30T08:02:16.501Z,86.60
2022-09-30T08:03:18.511Z,86.26
2022-09-30T08:04:22.030Z,85.94
2022-09-30T08:05:24.370Z,86.42
2022-09-30T08:06:28.694Z,86.50
2022-09-30T08:07:30.945Z,86.61
2022-09-30T08:08:35.029Z,87.49
2022-09-30T08:09:37.487Z,87.22
2022-09-30T08:10:40.190Z,86.66
2022-09-30T08:11:42.626Z,87.92
2022-09-30T08:12:44.633Z,87.50
2022-09-30T08:13:56.662Z,86.66
2022-09-30T08:14:58.536Z,86.81
2022-09-30T08:16:00.715Z,86.51
2022-09-30T08:17:02.724Z,86.36
2022-09-30T08:18:04.651Z,86.02
2022-09-30T08:19:06.745Z,85.49
2022-09-30T08:20:13.104Z,85.51
2022-09-30T08:21:13.097Z,85.42
2022-09-30T08:22:15.082Z,85.55
2022-09-30T08:23:17.063Z,85.78
2022-09-30T08:24:20.033Z,85.60
2022-09-30T08:25:22.744Z,85.60
2022-09-30T08:26:24.931Z,85.94
2022-09-30T08:27:26.718Z,85.70
2022-09-30T08:28:31.063Z,85.53
2022-09-30T08:29:53.804Z,85.23
2022-09-30T08:30:40.599Z,85.72
2022-09-30T08:31:46.164Z,84.64
2022-09-30T08:32:48.068Z,84.68
2022-09-30T08:33:57.824Z,84.89
2022-09-30T08:34:59.774Z,84.99
2022-09-30T08:36:11.563Z,84.19
2022-09-30T08:37:13.701Z,84.07
2022-09-30T08:38:15.435Z,83.79
2022-09-30T08:39:19.098Z,83.70
2022-09-30T08:40:24.794Z,83.11
2022-09-30T08:41:59.746Z,82.36
2022-09-30T08:43:08.155Z,82.42
2022-09-30T08:44:24.589Z,82.67
2022-09-30T08:45:47.724Z,83.07
2022-09-30T08:47:20.943Z,83.81
2022-09-30T08:48:55.042Z,84.91
2022-09-30T08:50:16.897Z,85.68
2022-09-30T08:51:34.852Z,86.90
2022-09-30T08:52:55.712Z,89.66
2022-09-30T08:53:46.890Z,88.77
2022-09-30T08:54:52.558Z,88.16
2022-09-30T08:55:55.521Z,86.79
2022-09-30T08:56:59.753Z,85.71
2022-09-30T08:58:07.086Z,85.94
2022-09-30T08:59:15.425Z,86.00
2022-09-30T09:00:18.399Z,85.71
2022-09-30T09:01:31.251Z,85.45
2022-09-30T09:02:53.794Z,85.33
2022-09-30T09:03:58.025Z,84.08
2022-09-30T09:05:06.160Z,83.51
2022-09-30T09:06:28.481Z,83.08
2022-09-30T09:07:49.705Z,82.90
2022-09-30T09:09:12.175Z,82.80
2022-09-30T09:10:30.309Z,83.06
2022-09-30T09:12:02.267Z,82.68
2022-09-30T09:13:26.262Z,82.38
2022-09-30T09:14:37.718Z,83.04
2022-09-30T09:15:52.240Z,83.03
2022-09-30T09:17:00.985Z,83.10
2022-09-30T09:18:23.657Z,82.32
2022-09-30T09:19:29.222Z,82.20
2022-09-30T09:20:38.077Z,82.22
2022-09-30T09:21:58.448Z,82.52
2022-09-30T09:23:03.212Z,82.74
2022-09-30T09:24:08.832Z,84.19
2022-09-30T09:25:24.841Z,83.51
2022-09-30T09:26:31.455Z,82.82
2022-09-30T09:27:49.188Z,82.39
2022-09-30T09:29:21.486Z,82.04
2022-09-30T09:30:26.239Z,81.75
2022-09-30T09:31:28.317Z,81.12
2022-09-30T09:32:31.307Z,81.26
2022-09-30T09:33:38.318Z,80.96
2022-09-30T09:34:40.758Z,80.64
2022-09-30T09:35:55.341Z,80.52
2022-09-30T09:37:17.316Z,81.43
2022-09-30T09:39:44.980Z,80.81
2022-09-30T09:41:20.091Z,80.35
2022-09-30T09:42:52.428Z,79.65
2022-09-30T09:44:04.171Z,80.32
2022-09-30T09:45:24.606Z,81.51
2022-09-30T09:46:49.784Z,81.07
2022-09-30T09:47:52.616Z,80.47
2022-09-30T09:49:16.457Z,80.20
2022-09-30T09:50:42.544Z,79.54
2022-09-30T09:51:57.166Z,79.11
2022-09-30T09:53:12.161Z,78.70
2022-09-30T09:54:18.703Z,78.05
2022-09-30T09:55:22.215Z,78.92
2022-09-30T09:56:32.815Z,79.13
2022-09-30T09:57:34.765Z,78.90
2022-09-30T09:58:37.134Z,79.23
2022-09-30T09:59:54.180Z,79.16
2022-09-30T10:02:23.764Z,79.70
2022-09-30T10:03:26.253Z,79.48
2022-09-30T10:04:29.673Z,79.20
2022-09-30T10:05:36.325Z,79.12
2022-09-30T10:07:03.237Z,79.17
2022-09-30T10:08:11.708Z,78.87
2022-09-30T10:10:51.271Z,77.58
2022-09-30T10:12:08.835Z,77.32
2022-09-30T10:13:24.519Z,77.60
2022-09-30T10:14:26.474Z,77.41
2022-09-30T10:15:29.450Z,77.38
2022-09-30T10:16:34.425Z,77.00
2022-09-30T10:17:38.132Z,77.46
2022-09-30T10:18:41.235Z,77.35
2022-09-30T10:19:49.537Z,77.18
2022-09-30T10:21:20.555Z,77.31
2022-09-30T10:22:31.258Z,77.46
2022-09-30T10:23:38.982Z,77.12
2022-09-30T10:24:41.030Z,76.70
2022-09-30T10:27:26.883Z,77.00
2022-09-30T10:28:32.482Z,76.76
2022-09-30T10:29:36.410Z,77.49
2022-09-30T10:30:45.296Z,77.91
2022-09-30T10:31:47.275Z,77.83
2022-09-30T10:32:49.958Z,77.65
2022-09-30T10:34:05.317Z,77.61
2022-09-30T10:35:10.935Z,76.91
2022-09-30T10:36:20.999Z,76.96
2022-09-30T10:37:24.364Z,76.43
2022-09-30T10:38:27.772Z,76.15
2022-09-30T10:39:33.593Z,76.05
2022-09-30T10:40:35.728Z,76.05
2022-09-30T10:41:38.136Z,76.41
2022-09-30T10:42:42.682Z,77.29
2022-09-30T10:43:49.222Z,77.00
2022-09-30T10:45:03.305Z,76.75
2022-09-30T10:46:25.206Z,76.33
2022-09-30T10:47:18.552Z,77.02
2022-09-30T10:48:23.696Z,77.08
2022-09-30T10:50:45.174Z,76.03
2022-09-30T10:51:47.172Z,75.90
2022-09-30T10:52:52.750Z,75.49
2022-09-30T10:53:56.249Z,75.22
2022-09-30T10:55:13.250Z,74.92
2022-09-30T10:56:12.946Z,74.72
2022-09-30T10:57:18.907Z,74.29
2022-09-30T10:58:30.958Z,73.80
2022-09-30T10:59:36.456Z,73.36
2022-09-30T11:00:38.648Z,72.91
2022-09-30T11:01:53.682Z,72.53
2022-09-30T11:03:01.188Z,71.68
2022-09-30T11:04:19.158Z,71.38
2022-09-30T11:05:27.852Z,71.10
2022-09-30T11:06:33.033Z,71.03
2022-09-30T11:07:47.678Z,71.42
2022-09-30T11:09:05.365Z,71.54
2022-09-30T11:10:30.252Z,71.54
2022-09-30T11:11:39.768Z,71.82
2022-09-30T11:12:45.429Z,72.08
2022-09-30T11:13:51.172Z,72.05
2022-09-30T11:15:06.591Z,72.27
2022-09-30T11:16:12.954Z,72.49
2022-09-30T11:17:33.548Z,72.62
2022-09-30T11:18:39.673Z,72.40
2022-09-30T11:19:48.207Z,72.27
2022-09-30T11:20:56.934Z,72.23
2022-09-30T11:22:14.837Z,73.15
2022-09-30T11:23:40.264Z,72.70
2022-09-30T11:24:45.486Z,72.16
2022-09-30T11:25:51.103Z,72.81
2022-09-30T11:27:11.869Z,72.48
2022-09-30T11:28:43.089Z,71.97
2022-09-30T11:30:04.788Z,72.12
2022-09-30T11:31:39.735Z,71.46
2022-09-30T11:32:48.695Z,70.92
2022-09-30T11:34:03.553Z,70.95
2022-09-30T11:35:09.485Z,70.95
2022-09-30T11:36:15.734Z,71.03
2022-09-30T11:37:36.514Z,70.92
2022-09-30T11:38:56.758Z,70.77
2022-09-30T11:40:14.067Z,70.73
2022-09-30T11:41:40.748Z,70.73
2022-09-30T11:42:52.254Z,70.93
2022-09-30T11:44:03.918Z,70.69
2022-09-30T11:45:09.542Z,70.27
2022-09-30T11:46:29.816Z,69.64
2022-09-30T11:47:51.796Z,69.59
2022-09-30T11:49:14.178Z,69.81
2022-09-30T11:50:20.807Z,69.60
2022-09-30T11:51:44.405Z,69.93
2022-09-30T11:53:06.045Z,70.03
2022-09-30T11:54:17.908Z,70.07
2022-09-30T11:55:49.093Z,70.17
2022-09-30T11:57:03.762Z,70.55
2022-09-30T11:58:39.324Z,70.35
2022-09-30T11:59:28.977Z,70.26
2022-09-30T12:00:35.075Z,70.45
2022-09-30T12:01:44.469Z,70.30
2022-09-30T12:02:53.210Z,70.22
2022-09-30T12:04:25.086Z,70.11
2022-09-30T12:07:02.544Z,68.89
2022-09-30T12:08:09.209Z,68.90
2022-09-30T12:09:26.727Z,68.72
2022-09-30T12:10:32.488Z,68.29
2022-09-30T12:11:41.076Z,68.47
2022-09-30T12:12:45.544Z,68.09
2022-09-30T12:15:06.345Z,67.56
2022-09-30T12:16:19.158Z,66.98
2022-09-30T12:17:45.612Z,66.26
2022-09-30T12:20:30.132Z,65.78
2022-09-30T12:21:45.182Z,65.59
2022-09-30T12:22:49.367Z,65.35
2022-09-30T12:24:13.126Z,65.55
2022-09-30T12:25:29.675Z,65.76
2022-09-30T12:26:33.713Z,65.26
2022-09-30T12:27:48.606Z,65.51
2022-09-30T12:29:01.137Z,65.85
2022-09-30T12:30:14.257Z,65.81
2022-09-30T12:31:19.886Z,65.99
2022-09-30T12:32:25.936Z,66.27
2022-09-30T12:33:40.795Z,66.61
2022-09-30T12:35:15.080Z,66.77
2022-09-30T12:36:20.894Z,66.47
2022-09-30T12:37:35.480Z,66.77
2022-09-30T12:38:55.904Z,67.05
2022-09-30T12:40:22.900Z,67.25
2022-09-30T12:41:44.403Z,67.40
2022-09-30T12:43:05.624Z,67.49
2022-09-30T12:46:03.346Z,68.33
2022-09-30T12:49:12.879Z,69.27
2022-09-30T12:50:26.502Z,69.44
2022-09-30T12:51:32.151Z,69.29
2022-09-30T12:52:37.176Z,68.90
2022-09-30T12:53:41.752Z,68.95
2022-09-30T12:56:14.055Z,68.31
2022-09-30T12:57:20.662Z,68.39
2022-09-30T12:58:32.414Z,68.32
2022-09-30T12:59:38.173Z,67.99
2022-09-30T13:00:40.225Z,68.11
2022-09-30T13:01:43.350Z,67.98
2022-09-30T13:02:55.015Z,67.63
2022-09-30T13:04:00.772Z,68.06
2022-09-30T13:05:32.477Z,67.58
2022-09-30T13:06:51.534Z,66.65
2022-09-30T13:08:09.218Z,67.58
2022-09-30T13:09:17.879Z,67.51
2022-09-30T13:10:29.634Z,67.79
2022-09-30T13:11:57.398Z,67.62
2022-09-30T13:13:13.306Z,67.26
2022-09-30T13:14:36.622Z,67.46
2022-09-30T13:15:46.335Z,67.97
2022-09-30T13:17:10.489Z,68.03
2022-09-30T13:18:25.167Z,68.37
2022-09-30T13:19:49.944Z,68.80
2022-09-30T13:20:58.040Z,68.74
2022-09-30T13:22:22.739Z,69.32
2022-09-30T13:23:46.011Z,69.07
2022-09-30T13:25:02.435Z,68.64
2022-09-30T13:26:33.208Z,68.45
2022-09-30T13:27:46.204Z,68.00
2022-09-30T13:28:49.498Z,67.67
2022-09-30T13:29:51.463Z,67.27
2022-09-30T13:31:12.639Z,67.36
2022-09-30T13:32:18.495Z,67.43
2022-09-30T13:33:30.379Z,67.76
2022-09-30T13:34:34.811Z,67.49
2022-09-30T13:35:50.379Z,67.87
2022-09-30T13:37:02.711Z,68.13
2022-09-30T13:38:16.905Z,68.23
2022-09-30T13:39:40.184Z,68.63
2022-09-30T13:41:07.247Z,68.62
2022-09-30T13:43:05.883Z,68.53
2022-09-30T13:44:10.838Z,68.41
2022-09-30T13:45:19.397Z,68.37
2022-09-30T13:46:31.576Z,68.27
2022-09-30T13:47:39.564Z,68.14
2022-09-30T13:48:45.081Z,68.37
2022-09-30T13:50:06.553Z,67.94
2022-09-30T13:51:12.073Z,67.32
2022-09-30T13:53:39.433Z,66.47
2022-09-30T13:56:03.347Z,67.18
2022-09-30T13:57:17.905Z,66.47
2022-09-30T13:58:23.521Z,66.17
2022-09-30T13:59:35.548Z,65.54
2022-09-30T14:01:05.458Z,65.58
2022-09-30T14:02:32.373Z,65.28
2022-09-30T14:03:45.514Z,64.88
2022-09-30T14:05:04.871Z,64.35
2022-09-30T14:06:23.432Z,64.19
2022-09-30T14:07:41.365Z,64.17
2022-09-30T14:08:56.489Z,64.01
2022-09-30T14:10:33.423Z,63.61
2022-09-30T14:11:39.116Z,63.38
2022-09-30T14:13:02.482Z,62.95
2022-09-30T14:14:10.846Z,63.18
2022-09-30T14:15:33.895Z,63.05
2022-09-30T14:16:52.910Z,63.11
2022-09-30T14:18:08.150Z,63.43
2022-09-30T14:19:22.918Z,63.94
2022-09-30T14:20:49.902Z,64.18
2022-09-30T14:21:55.675Z,64.08
2022-09-30T14:22:57.656Z,64.18
2022-09-30T14:24:02.342Z,65.16
2022-09-30T14:25:08.027Z,65.85
2022-09-30T14:26:23.204Z,66.72
2022-09-30T14:27:49.329Z,67.15
2022-09-30T14:28:54.899Z,67.83
2022-09-30T14:30:22.701Z,69.30
2022-09-30T14:31:24.811Z,69.99
2022-09-30T14:32:49.436Z,69.86
2022-09-30T14:33:52.200Z,70.38
2022-09-30T14:35:31.830Z,71.10
2022-09-30T14:37:22.293Z,71.40
2022-09-30T14:38:28.212Z,71.67
2022-09-30T14:39:32.795Z,71.91
2022-09-30T14:40:39.345Z,72.40
2022-09-30T14:41:48.271Z,72.59
2022-09-30T14:42:55.374Z,73.08
2022-09-30T14:44:04.584Z,73.10
2022-09-30T14:45:09.875Z,73.18
2022-09-30T14:46:23.436Z,73.20
2022-09-30T14:47:26.579Z,73.34
2022-09-30T14:48:34.913Z,73.68
2022-09-30T14:49:39.890Z,73.67
2022-09-30T14:50:47.833Z,73.73
2022-09-30T14:51:51.717Z,73.73
2022-09-30T14:52:54.187Z,74.03
2022-09-30T14:53:59.436Z,74.35
2022-09-30T14:55:11.377Z,74.52
2022-09-30T14:56:21.514Z,74.66
2022-09-30T14:57:24.737Z,74.72
2022-09-30T14:58:43.001Z,74.52
2022-09-30T15:01:36.099Z,74.20
2022-09-30T15:07:36.046Z,74.14
2022-09-30T15:08:44.417Z,74.19
2022-09-30T15:09:48.402Z,74.65
2022-09-30T15:10:56.206Z,75.08
2022-09-30T15:12:14.827Z,75.37
2022-09-30T15:13:22.893Z,75.85
2022-09-30T15:14:26.785Z,77.28
2022-09-30T15:15:38.825Z,77.49